sensor_id;sensor_type;location;lat;lon;timestamp;P1;durP1;ratioP1;P2;durP2;ratioP2
5813;SDS011;2933;52.302;8.134;2022-07-10T00:01:45;4.47;;;0.60;;
5813;SDS011;2933;52.302;8.134;2022-07-10T00:06:47;2.80;;;1.00;;
5813;SDS011;2933;52.302;8.134;2022-07-10T00:11:49;3.33;;;0.80;;
5813;SDS011;2933;52.302;8.134;2022-07-10T00:16:51;1.20;;;1.00;;
5813;SDS011;2933;52.302;8.134;2022-07-10T00:21:53;5.73;;;1.23;;
5813;SDS011;2933;52.302;8.134;2022-07-10T00:26:55;5.73;;;1.03;;
5813;SDS011;2933;52.302;8.134;2022-07-10T00:31:56;3.20;;;1.07;;
5813;SDS011;2933;52.302;8.134;2022-07-10T00:36:59;2.80;;;1.00;;
5813;SDS011;2933;52.302;8.134;2022-07-10T00:42:07;2.90;;;0.90;;
5813;SDS011;2933;52.302;8.134;2022-07-10T00:47:10;9.07;;;1.47;;
5813;SDS011;2933;52.302;8.134;2022-07-10T00:52:16;1.57;;;0.70;;
5813;SDS011;2933;52.302;8.134;2022-07-10T00:57:18;8.75;;;1.23;;
5813;SDS011;2933;52.302;8.134;2022-07-10T01:02:22;6.27;;;1.30;;
5813;SDS011;2933;52.302;8.134;2022-07-10T01:07:25;9.00;;;3.23;;
5813;SDS011;2933;52.302;8.134;2022-07-10T01:12:26;5.20;;;0.90;;
5813;SDS011;2933;52.302;8.134;2022-07-10T01:17:28;4.97;;;1.00;;
5813;SDS011;2933;52.302;8.134;2022-07-10T01:22:32;3.70;;;1.30;;
5813;SDS011;2933;52.302;8.134;2022-07-10T01:27:34;3.73;;;1.20;;
5813;SDS011;2933;52.302;8.134;2022-07-10T01:32:38;7.80;;;1.40;;
5813;SDS011;2933;52.302;8.134;2022-07-10T01:37:41;4.37;;;1.20;;
5813;SDS011;2933;52.302;8.134;2022-07-10T01:42:43;3.83;;;1.07;;
5813;SDS011;2933;52.302;8.134;2022-07-10T01:47:45;2.97;;;0.83;;
5813;SDS011;2933;52.302;8.134;2022-07-10T01:52:48;5.33;;;1.13;;
5813;SDS011;2933;52.302;8.134;2022-07-10T01:57:50;2.40;;;0.93;;
5813;SDS011;2933;52.302;8.134;2022-07-10T02:02:51;5.00;;;1.13;;
5813;SDS011;2933;52.302;8.134;2022-07-10T02:08:08;4.77;;;1.30;;
5813;SDS011;2933;52.302;8.134;2022-07-10T02:13:10;1.90;;;1.23;;
5813;SDS011;2933;52.302;8.134;2022-07-10T02:18:14;1.73;;;1.13;;
5813;SDS011;2933;52.302;8.134;2022-07-10T02:23:17;5.23;;;1.20;;
5813;SDS011;2933;52.302;8.134;2022-07-10T02:28:19;6.70;;;1.40;;
5813;SDS011;2933;52.302;8.134;2022-07-10T02:33:20;3.20;;;1.30;;
5813;SDS011;2933;52.302;8.134;2022-07-10T02:38:23;3.90;;;0.87;;
5813;SDS011;2933;52.302;8.134;2022-07-10T02:43:25;8.97;;;1.23;;
5813;SDS011;2933;52.302;8.134;2022-07-10T02:48:26;3.13;;;1.00;;
5813;SDS011;2933;52.302;8.134;2022-07-10T02:53:29;5.83;;;1.13;;
5813;SDS011;2933;52.302;8.134;2022-07-10T02:58:31;3.40;;;1.20;;
5813;SDS011;2933;52.302;8.134;2022-07-10T03:03:33;2.50;;;1.30;;
5813;SDS011;2933;52.302;8.134;2022-07-10T03:08:36;11.23;;;1.23;;
5813;SDS011;2933;52.302;8.134;2022-07-10T03:13:37;6.00;;;1.20;;
5813;SDS011;2933;52.302;8.134;2022-07-10T03:18:38;7.83;;;1.30;;
5813;SDS011;2933;52.302;8.134;2022-07-10T03:23:42;2.07;;;1.00;;
5813;SDS011;2933;52.302;8.134;2022-07-10T03:28:43;8.03;;;0.90;;
5813;SDS011;2933;52.302;8.134;2022-07-10T03:33:45;5.30;;;1.03;;
5813;SDS011;2933;52.302;8.134;2022-07-10T03:38:47;2.73;;;0.90;;
5813;SDS011;2933;52.302;8.134;2022-07-10T03:43:49;6.53;;;1.10;;
5813;SDS011;2933;52.302;8.134;2022-07-10T03:48:51;3.00;;;1.10;;
5813;SDS011;2933;52.302;8.134;2022-07-10T03:53:53;6.60;;;1.00;;
5813;SDS011;2933;52.302;8.134;2022-07-10T03:58:55;5.30;;;1.10;;
5813;SDS011;2933;52.302;8.134;2022-07-10T04:03:56;4.83;;;1.13;;
5813;SDS011;2933;52.302;8.134;2022-07-10T04:09:00;3.47;;;1.20;;
5813;SDS011;2933;52.302;8.134;2022-07-10T04:14:01;3.80;;;1.07;;
5813;SDS011;2933;52.302;8.134;2022-07-10T04:19:03;2.93;;;0.83;;
5813;SDS011;2933;52.302;8.134;2022-07-10T04:24:06;8.53;;;1.37;;
5813;SDS011;2933;52.302;8.134;2022-07-10T04:29:07;1.43;;;1.13;;
5813;SDS011;2933;52.302;8.134;2022-07-10T04:34:10;14.03;;;1.40;;
5813;SDS011;2933;52.302;8.134;2022-07-10T04:39:13;8.27;;;0.80;;
5813;SDS011;2933;52.302;8.134;2022-07-10T04:44:14;12.63;;;1.40;;
5813;SDS011;2933;52.302;8.134;2022-07-10T04:49:16;6.07;;;1.60;;
5813;SDS011;2933;52.302;8.134;2022-07-10T04:54:19;5.73;;;1.03;;
5813;SDS011;2933;52.302;8.134;2022-07-10T04:59:20;7.50;;;1.10;;
5813;SDS011;2933;52.302;8.134;2022-07-10T05:04:22;6.37;;;1.50;;
5813;SDS011;2933;52.302;8.134;2022-07-10T05:09:25;6.40;;;1.20;;
5813;SDS011;2933;52.302;8.134;2022-07-10T05:14:26;8.30;;;1.20;;
5813;SDS011;2933;52.302;8.134;2022-07-10T05:19:28;4.43;;;1.33;;
5813;SDS011;2933;52.302;8.134;2022-07-10T05:24:31;4.67;;;1.23;;
5813;SDS011;2933;52.302;8.134;2022-07-10T05:29:32;5.30;;;1.07;;
5813;SDS011;2933;52.302;8.134;2022-07-10T05:34:34;3.50;;;1.10;;
5813;SDS011;2933;52.302;8.134;2022-07-10T05:39:37;7.87;;;1.17;;
5813;SDS011;2933;52.302;8.134;2022-07-10T05:44:38;5.00;;;1.10;;
5813;SDS011;2933;52.302;8.134;2022-07-10T05:49:40;0.90;;;0.90;;
5813;SDS011;2933;52.302;8.134;2022-07-10T05:54:42;11.83;;;1.77;;
5813;SDS011;2933;52.302;8.134;2022-07-10T05:59:44;4.50;;;0.93;;
5813;SDS011;2933;52.302;8.134;2022-07-10T06:04:45;7.47;;;1.20;;
5813;SDS011;2933;52.302;8.134;2022-07-10T06:09:48;1.70;;;1.10;;
5813;SDS011;2933;52.302;8.134;2022-07-10T06:14:50;6.70;;;1.30;;
5813;SDS011;2933;52.302;8.134;2022-07-10T06:19:51;6.77;;;1.10;;
5813;SDS011;2933;52.302;8.134;2022-07-10T06:24:55;5.73;;;1.30;;
5813;SDS011;2933;52.302;8.134;2022-07-10T06:29:59;8.83;;;1.23;;
5813;SDS011;2933;52.302;8.134;2022-07-10T06:35:01;4.07;;;0.97;;
5813;SDS011;2933;52.302;8.134;2022-07-10T06:40:05;5.97;;;1.07;;
5813;SDS011;2933;52.302;8.134;2022-07-10T06:45:08;7.10;;;1.10;;
5813;SDS011;2933;52.302;8.134;2022-07-10T06:50:10;3.43;;;1.00;;
5813;SDS011;2933;52.302;8.134;2022-07-10T06:55:13;4.93;;;1.17;;
5813;SDS011;2933;52.302;8.134;2022-07-10T07:00:15;5.80;;;1.40;;
5813;SDS011;2933;52.302;8.134;2022-07-10T07:05:16;4.87;;;1.30;;
5813;SDS011;2933;52.302;8.134;2022-07-10T07:10:19;5.63;;;1.03;;
5813;SDS011;2933;52.302;8.134;2022-07-10T07:15:21;8.67;;;1.00;;
5813;SDS011;2933;52.302;8.134;2022-07-10T07:20:24;7.67;;;1.17;;
5813;SDS011;2933;52.302;8.134;2022-07-10T07:25:45;2.80;;;1.20;;
5813;SDS011;2933;52.302;8.134;2022-07-10T07:30:47;3.90;;;1.23;;
5813;SDS011;2933;52.302;8.134;2022-07-10T07:35:49;6.00;;;1.57;;
5813;SDS011;2933;52.302;8.134;2022-07-10T07:40:52;5.07;;;0.80;;
5813;SDS011;2933;52.302;8.134;2022-07-10T07:45:54;6.10;;;0.93;;
5813;SDS011;2933;52.302;8.134;2022-07-10T07:50:57;4.73;;;0.80;;
5813;SDS011;2933;52.302;8.134;2022-07-10T07:55:59;3.87;;;1.10;;
5813;SDS011;2933;52.302;8.134;2022-07-10T08:01:01;2.47;;;1.30;;
5813;SDS011;2933;52.302;8.134;2022-07-10T08:06:02;3.43;;;1.20;;
5813;SDS011;2933;52.302;8.134;2022-07-10T08:11:05;5.23;;;1.13;;
5813;SDS011;2933;52.302;8.134;2022-07-10T08:16:07;2.53;;;0.90;;
5813;SDS011;2933;52.302;8.134;2022-07-10T08:21:08;7.83;;;1.57;;
5813;SDS011;2933;52.302;8.134;2022-07-10T08:26:11;5.10;;;1.07;;
5813;SDS011;2933;52.302;8.134;2022-07-10T08:31:13;3.73;;;1.13;;
5813;SDS011;2933;52.302;8.134;2022-07-10T08:36:14;2.47;;;0.70;;
5813;SDS011;2933;52.302;8.134;2022-07-10T08:41:17;7.83;;;1.00;;
5813;SDS011;2933;52.302;8.134;2022-07-10T08:46:21;6.63;;;1.00;;
5813;SDS011;2933;52.302;8.134;2022-07-10T08:51:24;2.97;;;1.10;;
5813;SDS011;2933;52.302;8.134;2022-07-10T08:56:37;10.07;;;1.27;;
5813;SDS011;2933;52.302;8.134;2022-07-10T09:01:39;3.90;;;0.90;;
5813;SDS011;2933;52.302;8.134;2022-07-10T09:06:40;8.33;;;0.90;;
5813;SDS011;2933;52.302;8.134;2022-07-10T09:11:43;4.73;;;1.40;;
5813;SDS011;2933;52.302;8.134;2022-07-10T09:16:46;1.77;;;0.80;;
5813;SDS011;2933;52.302;8.134;2022-07-10T09:21:51;10.60;;;0.90;;
5813;SDS011;2933;52.302;8.134;2022-07-10T09:26:59;2.73;;;1.10;;
5813;SDS011;2933;52.302;8.134;2022-07-10T09:32:03;5.70;;;1.07;;
5813;SDS011;2933;52.302;8.134;2022-07-10T09:37:21;2.33;;;0.80;;
5813;SDS011;2933;52.302;8.134;2022-07-10T09:42:26;2.40;;;0.87;;
5813;SDS011;2933;52.302;8.134;2022-07-10T09:47:30;2.53;;;0.93;;
5813;SDS011;2933;52.302;8.134;2022-07-10T09:52:31;1.00;;;0.90;;
5813;SDS011;2933;52.302;8.134;2022-07-10T09:57:35;1.83;;;0.70;;
5813;SDS011;2933;52.302;8.134;2022-07-10T10:02:38;3.17;;;1.00;;
5813;SDS011;2933;52.302;8.134;2022-07-10T10:07:40;1.33;;;0.70;;
5813;SDS011;2933;52.302;8.134;2022-07-10T10:12:44;0.50;;;0.50;;
5813;SDS011;2933;52.302;8.134;2022-07-10T10:17:53;2.20;;;0.60;;
5813;SDS011;2933;52.302;8.134;2022-07-10T10:22:55;0.60;;;0.60;;
5813;SDS011;2933;52.302;8.134;2022-07-10T10:28:02;1.03;;;0.63;;
5813;SDS011;2933;52.302;8.134;2022-07-10T10:39:00;0.97;;;0.80;;
5813;SDS011;2933;52.302;8.134;2022-07-10T10:44:22;1.87;;;0.93;;
5813;SDS011;2933;52.302;8.134;2022-07-10T10:49:24;1.10;;;0.50;;
5813;SDS011;2933;52.302;8.134;2022-07-10T10:54:26;4.17;;;0.60;;
5813;SDS011;2933;52.302;8.134;2022-07-10T10:59:45;1.20;;;0.70;;
5813;SDS011;2933;52.302;8.134;2022-07-10T11:04:47;0.70;;;0.50;;
5813;SDS011;2933;52.302;8.134;2022-07-10T11:09:50;4.67;;;0.50;;
5813;SDS011;2933;52.302;8.134;2022-07-10T11:15:14;2.93;;;0.70;;
5813;SDS011;2933;52.302;8.134;2022-07-10T11:20:16;1.27;;;0.77;;
5813;SDS011;2933;52.302;8.134;2022-07-10T11:25:31;1.87;;;0.80;;
5813;SDS011;2933;52.302;8.134;2022-07-10T11:30:44;0.70;;;0.70;;
5813;SDS011;2933;52.302;8.134;2022-07-10T11:35:47;1.20;;;0.50;;
5813;SDS011;2933;52.302;8.134;2022-07-10T11:40:50;0.67;;;0.50;;
5813;SDS011;2933;52.302;8.134;2022-07-10T11:45:55;1.03;;;0.83;;
5813;SDS011;2933;52.302;8.134;2022-07-10T11:51:00;1.17;;;0.70;;
5813;SDS011;2933;52.302;8.134;2022-07-10T11:56:02;0.70;;;0.70;;
5813;SDS011;2933;52.302;8.134;2022-07-10T12:01:05;1.07;;;0.60;;
5813;SDS011;2933;52.302;8.134;2022-07-10T12:06:08;0.50;;;0.50;;
5813;SDS011;2933;52.302;8.134;2022-07-10T12:11:13;0.97;;;0.63;;
5813;SDS011;2933;52.302;8.134;2022-07-10T12:16:16;0.50;;;0.50;;
5813;SDS011;2933;52.302;8.134;2022-07-10T12:21:18;1.33;;;0.50;;
5813;SDS011;2933;52.302;8.134;2022-07-10T12:26:21;0.50;;;0.50;;
5813;SDS011;2933;52.302;8.134;2022-07-10T12:31:25;1.47;;;0.83;;
5813;SDS011;2933;52.302;8.134;2022-07-10T12:36:41;1.00;;;0.67;;
5813;SDS011;2933;52.302;8.134;2022-07-10T12:41:53;0.60;;;0.60;;
5813;SDS011;2933;52.302;8.134;2022-07-10T12:47:03;0.50;;;0.50;;
5813;SDS011;2933;52.302;8.134;2022-07-10T12:52:18;1.67;;;0.70;;
5813;SDS011;2933;52.302;8.134;2022-07-10T12:57:20;0.97;;;0.60;;
5813;SDS011;2933;52.302;8.134;2022-07-10T13:02:23;2.50;;;0.70;;
5813;SDS011;2933;52.302;8.134;2022-07-10T13:07:29;0.50;;;0.50;;
5813;SDS011;2933;52.302;8.134;2022-07-10T13:12:31;1.57;;;0.50;;
5813;SDS011;2933;52.302;8.134;2022-07-10T13:22:44;0.57;;;0.57;;
5813;SDS011;2933;52.302;8.134;2022-07-10T13:27:46;0.50;;;0.50;;
5813;SDS011;2933;52.302;8.134;2022-07-10T13:32:48;1.63;;;0.50;;
5813;SDS011;2933;52.302;8.134;2022-07-10T13:37:51;1.50;;;0.77;;
5813;SDS011;2933;52.302;8.134;2022-07-10T13:42:52;0.90;;;0.60;;
5813;SDS011;2933;52.302;8.134;2022-07-10T13:47:55;0.90;;;0.70;;
5813;SDS011;2933;52.302;8.134;2022-07-10T13:52:58;0.67;;;0.67;;
5813;SDS011;2933;52.302;8.134;2022-07-10T13:57:59;0.60;;;0.60;;
5813;SDS011;2933;52.302;8.134;2022-07-10T14:03:01;0.63;;;0.47;;
5813;SDS011;2933;52.302;8.134;2022-07-10T14:08:04;1.33;;;0.60;;
5813;SDS011;2933;52.302;8.134;2022-07-10T14:13:06;0.43;;;0.40;;
5813;SDS011;2933;52.302;8.134;2022-07-10T14:18:08;5.27;;;0.40;;
5813;SDS011;2933;52.302;8.134;2022-07-10T14:23:11;1.37;;;0.50;;
5813;SDS011;2933;52.302;8.134;2022-07-10T14:28:12;0.50;;;0.40;;
5813;SDS011;2933;52.302;8.134;2022-07-10T14:33:14;0.50;;;0.50;;
5813;SDS011;2933;52.302;8.134;2022-07-10T14:38:17;0.40;;;0.40;;
5813;SDS011;2933;52.302;8.134;2022-07-10T14:43:19;0.43;;;0.43;;
5813;SDS011;2933;52.302;8.134;2022-07-10T14:48:21;0.40;;;0.40;;
5813;SDS011;2933;52.302;8.134;2022-07-10T14:53:24;0.40;;;0.40;;
5813;SDS011;2933;52.302;8.134;2022-07-10T14:58:25;0.50;;;0.40;;
5813;SDS011;2933;52.302;8.134;2022-07-10T15:03:27;0.70;;;0.50;;
5813;SDS011;2933;52.302;8.134;2022-07-10T15:08:29;0.40;;;0.40;;
5813;SDS011;2933;52.302;8.134;2022-07-10T15:13:31;0.40;;;0.40;;
5813;SDS011;2933;52.302;8.134;2022-07-10T15:18:33;0.50;;;0.50;;
5813;SDS011;2933;52.302;8.134;2022-07-10T15:23:36;0.70;;;0.53;;
5813;SDS011;2933;52.302;8.134;2022-07-10T15:28:37;0.40;;;0.40;;
5813;SDS011;2933;52.302;8.134;2022-07-10T15:33:39;0.60;;;0.40;;
5813;SDS011;2933;52.302;8.134;2022-07-10T15:38:45;0.50;;;0.50;;
5813;SDS011;2933;52.302;8.134;2022-07-10T15:43:47;0.67;;;0.47;;
5813;SDS011;2933;52.302;8.134;2022-07-10T15:48:51;0.60;;;0.60;;
5813;SDS011;2933;52.302;8.134;2022-07-10T15:53:54;0.70;;;0.70;;
5813;SDS011;2933;52.302;8.134;2022-07-10T15:58:56;0.80;;;0.80;;
5813;SDS011;2933;52.302;8.134;2022-07-10T16:03:57;1.23;;;0.60;;
5813;SDS011;2933;52.302;8.134;2022-07-10T16:09:00;2.17;;;0.60;;
5813;SDS011;2933;52.302;8.134;2022-07-10T16:14:02;0.73;;;0.70;;
5813;SDS011;2933;52.302;8.134;2022-07-10T16:19:04;0.77;;;0.77;;
5813;SDS011;2933;52.302;8.134;2022-07-10T16:24:09;4.10;;;1.00;;
5813;SDS011;2933;52.302;8.134;2022-07-10T16:29:10;1.30;;;0.70;;
5813;SDS011;2933;52.302;8.134;2022-07-10T16:34:12;1.33;;;0.90;;
5813;SDS011;2933;52.302;8.134;2022-07-10T16:39:15;0.80;;;0.80;;
5813;SDS011;2933;52.302;8.134;2022-07-10T16:44:16;1.27;;;0.83;;
5813;SDS011;2933;52.302;8.134;2022-07-10T16:49:18;0.97;;;0.77;;
5813;SDS011;2933;52.302;8.134;2022-07-10T16:54:21;1.33;;;0.77;;
5813;SDS011;2933;52.302;8.134;2022-07-10T16:59:22;1.80;;;1.00;;
5813;SDS011;2933;52.302;8.134;2022-07-10T17:04:24;1.10;;;1.00;;
5813;SDS011;2933;52.302;8.134;2022-07-10T17:09:37;0.77;;;0.77;;
5813;SDS011;2933;52.302;8.134;2022-07-10T17:14:39;1.03;;;0.70;;
5813;SDS011;2933;52.302;8.134;2022-07-10T17:19:40;0.70;;;0.70;;
5813;SDS011;2933;52.302;8.134;2022-07-10T17:24:46;0.80;;;0.80;;
5813;SDS011;2933;52.302;8.134;2022-07-10T17:29:50;0.73;;;0.73;;
5813;SDS011;2933;52.302;8.134;2022-07-10T17:34:52;1.10;;;1.10;;
5813;SDS011;2933;52.302;8.134;2022-07-10T17:39:54;0.73;;;0.73;;
5813;SDS011;2933;52.302;8.134;2022-07-10T17:44:56;1.00;;;0.80;;
5813;SDS011;2933;52.302;8.134;2022-07-10T17:50:00;0.93;;;0.93;;
5813;SDS011;2933;52.302;8.134;2022-07-10T17:55:05;0.90;;;0.90;;
5813;SDS011;2933;52.302;8.134;2022-07-10T18:00:08;1.37;;;1.10;;
5813;SDS011;2933;52.302;8.134;2022-07-10T18:05:11;1.13;;;0.83;;
5813;SDS011;2933;52.302;8.134;2022-07-10T18:10:14;3.00;;;1.03;;
5813;SDS011;2933;52.302;8.134;2022-07-10T18:15:15;1.00;;;1.00;;
5813;SDS011;2933;52.302;8.134;2022-07-10T18:20:17;1.07;;;1.07;;
5813;SDS011;2933;52.302;8.134;2022-07-10T18:25:20;1.27;;;1.17;;
5813;SDS011;2933;52.302;8.134;2022-07-10T18:30:22;1.30;;;1.30;;
5813;SDS011;2933;52.302;8.134;2022-07-10T18:35:24;4.13;;;1.40;;
5813;SDS011;2933;52.302;8.134;2022-07-10T18:40:27;1.47;;;1.37;;
5813;SDS011;2933;52.302;8.134;2022-07-10T18:45:28;2.17;;;1.40;;
5813;SDS011;2933;52.302;8.134;2022-07-10T18:50:30;1.70;;;1.50;;
5813;SDS011;2933;52.302;8.134;2022-07-10T18:55:33;1.60;;;1.50;;
5813;SDS011;2933;52.302;8.134;2022-07-10T19:00:35;2.60;;;1.63;;
5813;SDS011;2933;52.302;8.134;2022-07-10T19:05:36;1.37;;;1.27;;
5813;SDS011;2933;52.302;8.134;2022-07-10T19:10:40;1.93;;;1.50;;
5813;SDS011;2933;52.302;8.134;2022-07-10T19:15:41;2.00;;;1.90;;
5813;SDS011;2933;52.302;8.134;2022-07-10T19:20:43;2.87;;;1.60;;
5813;SDS011;2933;52.302;8.134;2022-07-10T19:25:47;1.83;;;1.73;;
5813;SDS011;2933;52.302;8.134;2022-07-10T19:30:51;1.90;;;1.80;;
5813;SDS011;2933;52.302;8.134;2022-07-10T19:35:52;1.90;;;1.80;;
5813;SDS011;2933;52.302;8.134;2022-07-10T19:40:55;2.50;;;1.73;;
5813;SDS011;2933;52.302;8.134;2022-07-10T19:45:57;1.80;;;1.70;;
5813;SDS011;2933;52.302;8.134;2022-07-10T19:51:01;2.07;;;1.97;;
5813;SDS011;2933;52.302;8.134;2022-07-10T19:56:04;3.07;;;1.80;;
5813;SDS011;2933;52.302;8.134;2022-07-10T20:01:07;5.40;;;1.73;;
5813;SDS011;2933;52.302;8.134;2022-07-10T20:06:08;6.13;;;2.13;;
5813;SDS011;2933;52.302;8.134;2022-07-10T20:11:11;1.60;;;1.50;;
5813;SDS011;2933;52.302;8.134;2022-07-10T20:16:13;1.50;;;1.40;;
5813;SDS011;2933;52.302;8.134;2022-07-10T20:21:15;3.33;;;1.80;;
5813;SDS011;2933;52.302;8.134;2022-07-10T20:26:18;1.97;;;1.87;;
5813;SDS011;2933;52.302;8.134;2022-07-10T20:31:19;1.93;;;1.83;;
5813;SDS011;2933;52.302;8.134;2022-07-10T20:36:21;1.60;;;1.50;;
5813;SDS011;2933;52.302;8.134;2022-07-10T20:41:41;2.50;;;2.30;;
5813;SDS011;2933;52.302;8.134;2022-07-10T20:46:43;3.17;;;1.90;;
5813;SDS011;2933;52.302;8.134;2022-07-10T20:51:44;7.30;;;3.50;;
5813;SDS011;2933;52.302;8.134;2022-07-10T20:56:47;6.63;;;2.80;;
5813;SDS011;2933;52.302;8.134;2022-07-10T21:01:49;3.30;;;2.10;;
5813;SDS011;2933;52.302;8.134;2022-07-10T21:06:50;4.70;;;2.20;;
5813;SDS011;2933;52.302;8.134;2022-07-10T21:11:53;2.43;;;2.10;;
5813;SDS011;2933;52.302;8.134;2022-07-10T21:17:02;2.20;;;2.10;;
5813;SDS011;2933;52.302;8.134;2022-07-10T21:22:45;2.13;;;1.93;;
5813;SDS011;2933;52.302;8.134;2022-07-10T22:28:22;7.03;;;3.13;;
5813;SDS011;2933;52.302;8.134;2022-07-10T22:33:24;4.07;;;2.87;;
5813;SDS011;2933;52.302;8.134;2022-07-10T22:38:26;3.70;;;3.40;;
5813;SDS011;2933;52.302;8.134;2022-07-10T22:43:29;12.23;;;3.23;;
5813;SDS011;2933;52.302;8.134;2022-07-10T22:48:30;3.97;;;3.67;;
5813;SDS011;2933;52.302;8.134;2022-07-10T22:53:32;4.27;;;3.50;;
5813;SDS011;2933;52.302;8.134;2022-07-10T22:58:35;4.10;;;3.70;;
5813;SDS011;2933;52.302;8.134;2022-07-10T23:03:37;7.10;;;4.07;;
5813;SDS011;2933;52.302;8.134;2022-07-10T23:08:38;4.50;;;3.83;;
5813;SDS011;2933;52.302;8.134;2022-07-10T23:13:41;4.07;;;3.60;;
5813;SDS011;2933;52.302;8.134;2022-07-10T23:18:43;5.53;;;3.80;;
5813;SDS011;2933;52.302;8.134;2022-07-10T23:23:44;5.80;;;3.47;;
5813;SDS011;2933;52.302;8.134;2022-07-10T23:28:47;9.70;;;4.73;;
5813;SDS011;2933;52.302;8.134;2022-07-10T23:33:48;3.93;;;3.73;;
5813;SDS011;2933;52.302;8.134;2022-07-10T23:38:50;4.33;;;4.03;;
5813;SDS011;2933;52.302;8.134;2022-07-10T23:43:53;4.50;;;3.30;;
5813;SDS011;2933;52.302;8.134;2022-07-10T23:48:54;3.43;;;3.13;;
5813;SDS011;2933;52.302;8.134;2022-07-10T23:54:25;5.00;;;3.40;;
5813;SDS011;2933;52.302;8.134;2022-07-10T23:59:28;4.57;;;4.17;;
